sensor_id;sensor_type;location;lat;lon;timestamp;P1;durP1;ratioP1;P2;durP2;ratioP2
10963;SDS011;5534;48.784;9.190;2024-03-02T00:01:14;2.53;;;1.70;;
10963;SDS011;5534;48.784;9.190;2024-03-02T00:03:39;2.57;;;2.30;;
10963;SDS011;5534;48.784;9.190;2024-03-02T00:06:07;2.10;;;1.80;;
10963;SDS011;5534;48.784;9.190;2024-03-02T00:08:33;2.43;;;1.80;;
10963;SDS011;5534;48.784;9.190;2024-03-02T00:10:59;3.80;;;2.40;;
10963;SDS011;5534;48.784;9.190;2024-03-02T00:13:27;3.93;;;2.30;;
10963;SDS011;5534;48.784;9.190;2024-03-02T00:15:55;2.40;;;1.67;;
10963;SDS011;5534;48.784;9.190;2024-03-02T00:18:31;4.53;;;2.13;;
10963;SDS011;5534;48.784;9.190;2024-03-02T00:20:59;2.53;;;1.90;;
10963;SDS011;5534;48.784;9.190;2024-03-02T00:23:32;2.27;;;2.00;;
10963;SDS011;5534;48.784;9.190;2024-03-02T00:25:58;1.48;;;1.38;;
10963;SDS011;5534;48.784;9.190;2024-03-02T00:28:27;1.70;;;1.60;;
10963;SDS011;5534;48.784;9.190;2024-03-02T00:30:59;2.40;;;1.50;;
10963;SDS011;5534;48.784;9.190;2024-03-02T00:33:46;2.57;;;2.07;;
10963;SDS011;5534;48.784;9.190;2024-03-02T00:36:14;2.93;;;2.17;;
10963;SDS011;5534;48.784;9.190;2024-03-02T00:38:46;2.20;;;1.87;;
10963;SDS011;5534;48.784;9.190;2024-03-02T00:41:17;1.80;;;1.70;;
10963;SDS011;5534;48.784;9.190;2024-03-02T00:43:56;4.20;;;2.87;;
10963;SDS011;5534;48.784;9.190;2024-03-02T00:46:23;3.87;;;2.07;;
10963;SDS011;5534;48.784;9.190;2024-03-02T00:51:19;2.60;;;1.98;;
10963;SDS011;5534;48.784;9.190;2024-03-02T00:53:46;2.03;;;1.53;;
10963;SDS011;5534;48.784;9.190;2024-03-02T00:56:11;1.63;;;1.50;;
10963;SDS011;5534;48.784;9.190;2024-03-02T00:58:37;1.53;;;1.43;;
10963;SDS011;5534;48.784;9.190;2024-03-02T01:01:04;1.93;;;1.60;;
10963;SDS011;5534;48.784;9.190;2024-03-02T01:03:30;1.83;;;1.67;;
10963;SDS011;5534;48.784;9.190;2024-03-02T01:05:56;2.40;;;2.20;;
10963;SDS011;5534;48.784;9.190;2024-03-02T01:08:23;1.40;;;1.30;;
10963;SDS011;5534;48.784;9.190;2024-03-02T01:10:49;3.27;;;1.60;;
10963;SDS011;5534;48.784;9.190;2024-03-02T01:13:15;1.77;;;1.40;;
10963;SDS011;5534;48.784;9.190;2024-03-02T01:15:40;1.80;;;1.60;;
10963;SDS011;5534;48.784;9.190;2024-03-02T01:18:06;3.40;;;2.37;;
10963;SDS011;5534;48.784;9.190;2024-03-02T01:20:31;2.63;;;1.53;;
10963;SDS011;5534;48.784;9.190;2024-03-02T01:22:57;2.07;;;1.87;;
10963;SDS011;5534;48.784;9.190;2024-03-02T01:25:23;2.50;;;1.73;;
10963;SDS011;5534;48.784;9.190;2024-03-02T01:27:48;2.27;;;1.50;;
10963;SDS011;5534;48.784;9.190;2024-03-02T01:30:14;2.50;;;1.90;;
10963;SDS011;5534;48.784;9.190;2024-03-02T01:32:39;2.47;;;1.67;;
10963;SDS011;5534;48.784;9.190;2024-03-02T01:35:05;2.20;;;1.37;;
10963;SDS011;5534;48.784;9.190;2024-03-02T01:37:32;2.20;;;2.00;;
10963;SDS011;5534;48.784;9.190;2024-03-02T01:39:58;3.10;;;2.10;;
10963;SDS011;5534;48.784;9.190;2024-03-02T01:42:24;2.43;;;2.23;;
10963;SDS011;5534;48.784;9.190;2024-03-02T01:44:49;2.80;;;1.67;;
10963;SDS011;5534;48.784;9.190;2024-03-02T01:47:15;2.87;;;2.00;;
10963;SDS011;5534;48.784;9.190;2024-03-02T01:49:41;2.87;;;1.90;;
10963;SDS011;5534;48.784;9.190;2024-03-02T01:52:07;2.70;;;2.27;;
10963;SDS011;5534;48.784;9.190;2024-03-02T01:54:32;1.73;;;1.27;;
10963;SDS011;5534;48.784;9.190;2024-03-02T01:56:58;2.23;;;1.50;;
10963;SDS011;5534;48.784;9.190;2024-03-02T01:59:24;1.60;;;1.50;;
10963;SDS011;5534;48.784;9.190;2024-03-02T02:01:50;3.00;;;2.27;;
10963;SDS011;5534;48.784;9.190;2024-03-02T02:04:16;3.87;;;2.00;;
10963;SDS011;5534;48.784;9.190;2024-03-02T02:06:42;2.57;;;1.93;;
10963;SDS011;5534;48.784;9.190;2024-03-02T02:09:09;2.03;;;1.87;;
10963;SDS011;5534;48.784;9.190;2024-03-02T02:11:35;3.23;;;2.37;;
10963;SDS011;5534;48.784;9.190;2024-03-02T02:14:01;1.77;;;1.50;;
10963;SDS011;5534;48.784;9.190;2024-03-02T02:16:26;2.23;;;1.63;;
10963;SDS011;5534;48.784;9.190;2024-03-02T02:18:52;2.13;;;1.70;;
10963;SDS011;5534;48.784;9.190;2024-03-02T02:21:22;1.47;;;1.37;;
10963;SDS011;5534;48.784;9.190;2024-03-02T02:23:48;2.40;;;1.50;;
10963;SDS011;5534;48.784;9.190;2024-03-02T02:26:15;2.27;;;1.90;;
10963;SDS011;5534;48.784;9.190;2024-03-02T02:28:44;2.17;;;1.73;;
10963;SDS011;5534;48.784;9.190;2024-03-02T02:31:12;1.97;;;1.43;;
10963;SDS011;5534;48.784;9.190;2024-03-02T02:33:41;2.87;;;1.70;;
10963;SDS011;5534;48.784;9.190;2024-03-02T02:36:07;4.00;;;2.10;;
10963;SDS011;5534;48.784;9.190;2024-03-02T02:38:35;2.63;;;2.10;;
10963;SDS011;5534;48.784;9.190;2024-03-02T02:41:05;2.00;;;1.47;;
10963;SDS011;5534;48.784;9.190;2024-03-02T02:43:30;2.83;;;1.70;;
10963;SDS011;5534;48.784;9.190;2024-03-02T02:45:56;1.83;;;1.50;;
10963;SDS011;5534;48.784;9.190;2024-03-02T02:48:22;3.00;;;2.13;;
10963;SDS011;5534;48.784;9.190;2024-03-02T02:50:47;1.80;;;1.13;;
10963;SDS011;5534;48.784;9.190;2024-03-02T02:53:13;3.53;;;2.10;;
10963;SDS011;5534;48.784;9.190;2024-03-02T02:55:41;2.43;;;2.23;;
10963;SDS011;5534;48.784;9.190;2024-03-02T02:58:08;2.20;;;1.77;;
10963;SDS011;5534;48.784;9.190;2024-03-02T03:00:34;3.70;;;2.17;;
10963;SDS011;5534;48.784;9.190;2024-03-02T03:03:01;2.40;;;1.80;;
10963;SDS011;5534;48.784;9.190;2024-03-02T03:05:27;2.30;;;1.70;;
10963;SDS011;5534;48.784;9.190;2024-03-02T03:07:53;1.90;;;1.70;;
10963;SDS011;5534;48.784;9.190;2024-03-02T03:10:18;3.57;;;1.90;;
10963;SDS011;5534;48.784;9.190;2024-03-02T03:12:47;2.57;;;2.07;;
10963;SDS011;5534;48.784;9.190;2024-03-02T03:15:13;3.63;;;2.10;;
10963;SDS011;5534;48.784;9.190;2024-03-02T03:17:39;2.70;;;1.90;;
10963;SDS011;5534;48.784;9.190;2024-03-02T03:20:06;2.83;;;1.43;;
10963;SDS011;5534;48.784;9.190;2024-03-02T03:22:34;2.83;;;1.93;;
10963;SDS011;5534;48.784;9.190;2024-03-02T03:25:00;2.73;;;2.47;;
10963;SDS011;5534;48.784;9.190;2024-03-02T03:27:26;4.20;;;2.40;;
10963;SDS011;5534;48.784;9.190;2024-03-02T03:29:52;4.30;;;2.67;;
10963;SDS011;5534;48.784;9.190;2024-03-02T03:32:17;3.03;;;2.23;;
10963;SDS011;5534;48.784;9.190;2024-03-02T03:34:43;2.23;;;1.53;;
10963;SDS011;5534;48.784;9.190;2024-03-02T03:37:09;2.30;;;1.73;;
10963;SDS011;5534;48.784;9.190;2024-03-02T03:39:34;3.70;;;2.17;;
10963;SDS011;5534;48.784;9.190;2024-03-02T03:42:03;2.33;;;1.57;;
10963;SDS011;5534;48.784;9.190;2024-03-02T03:44:29;1.90;;;1.30;;
10963;SDS011;5534;48.784;9.190;2024-03-02T03:46:54;2.43;;;1.57;;
10963;SDS011;5534;48.784;9.190;2024-03-02T03:49:20;3.07;;;1.73;;
10963;SDS011;5534;48.784;9.190;2024-03-02T03:51:46;1.77;;;1.50;;
10963;SDS011;5534;48.784;9.190;2024-03-02T03:54:11;1.93;;;1.80;;
10963;SDS011;5534;48.784;9.190;2024-03-02T03:56:37;2.23;;;2.00;;
10963;SDS011;5534;48.784;9.190;2024-03-02T03:59:03;2.77;;;2.07;;
10963;SDS011;5534;48.784;9.190;2024-03-02T04:01:29;1.90;;;1.70;;
10963;SDS011;5534;48.784;9.190;2024-03-02T04:03:56;3.83;;;2.40;;
10963;SDS011;5534;48.784;9.190;2024-03-02T04:06:22;2.13;;;1.70;;
10963;SDS011;5534;48.784;9.190;2024-03-02T04:08:48;3.20;;;2.07;;
10963;SDS011;5534;48.784;9.190;2024-03-02T04:11:14;2.73;;;2.10;;
10963;SDS011;5534;48.784;9.190;2024-03-02T04:13:39;3.83;;;1.67;;
10963;SDS011;5534;48.784;9.190;2024-03-02T04:16:05;3.27;;;2.30;;
10963;SDS011;5534;48.784;9.190;2024-03-02T04:18:31;1.90;;;1.63;;
10963;SDS011;5534;48.784;9.190;2024-03-02T04:21:00;3.30;;;1.57;;
10963;SDS011;5534;48.784;9.190;2024-03-02T04:23:28;1.90;;;1.47;;
10963;SDS011;5534;48.784;9.190;2024-03-02T04:25:54;2.63;;;1.50;;
10963;SDS011;5534;48.784;9.190;2024-03-02T04:28:19;3.10;;;1.67;;
10963;SDS011;5534;48.784;9.190;2024-03-02T04:30:45;2.53;;;1.70;;
10963;SDS011;5534;48.784;9.190;2024-03-02T04:33:11;2.67;;;1.77;;
10963;SDS011;5534;48.784;9.190;2024-03-02T04:35:36;2.10;;;1.90;;
10963;SDS011;5534;48.784;9.190;2024-03-02T04:38:02;1.70;;;1.27;;
10963;SDS011;5534;48.784;9.190;2024-03-02T04:40:28;2.53;;;1.97;;
10963;SDS011;5534;48.784;9.190;2024-03-02T04:42:53;2.20;;;1.90;;
10963;SDS011;5534;48.784;9.190;2024-03-02T04:45:19;2.30;;;1.77;;
10963;SDS011;5534;48.784;9.190;2024-03-02T04:47:45;2.20;;;1.77;;
10963;SDS011;5534;48.784;9.190;2024-03-02T04:50:10;2.00;;;1.80;;
10963;SDS011;5534;48.784;9.190;2024-03-02T04:52:36;3.10;;;1.73;;
10963;SDS011;5534;48.784;9.190;2024-03-02T04:55:02;1.70;;;1.60;;
10963;SDS011;5534;48.784;9.190;2024-03-02T04:57:41;2.10;;;1.70;;
10963;SDS011;5534;48.784;9.190;2024-03-02T05:00:07;2.90;;;2.30;;
10963;SDS011;5534;48.784;9.190;2024-03-02T05:02:34;2.30;;;1.40;;
10963;SDS011;5534;48.784;9.190;2024-03-02T05:05:00;2.57;;;1.90;;
10963;SDS011;5534;48.784;9.190;2024-03-02T05:07:25;2.73;;;2.50;;
10963;SDS011;5534;48.784;9.190;2024-03-02T05:09:51;3.40;;;1.77;;
10963;SDS011;5534;48.784;9.190;2024-03-02T05:12:17;1.70;;;1.60;;
10963;SDS011;5534;48.784;9.190;2024-03-02T05:15:06;2.60;;;2.40;;
10963;SDS011;5534;48.784;9.190;2024-03-02T05:17:32;3.33;;;2.07;;
10963;SDS011;5534;48.784;9.190;2024-03-02T05:19:58;4.33;;;1.97;;
10963;SDS011;5534;48.784;9.190;2024-03-02T05:22:23;1.70;;;1.60;;
10963;SDS011;5534;48.784;9.190;2024-03-02T05:24:49;1.90;;;1.77;;
10963;SDS011;5534;48.784;9.190;2024-03-02T05:27:15;2.03;;;1.83;;
10963;SDS011;5534;48.784;9.190;2024-03-02T05:29:40;3.07;;;2.40;;
10963;SDS011;5534;48.784;9.190;2024-03-02T05:32:06;2.27;;;1.93;;
10963;SDS011;5534;48.784;9.190;2024-03-02T05:34:32;3.53;;;2.33;;
10963;SDS011;5534;48.784;9.190;2024-03-02T05:37:00;1.87;;;1.43;;
10963;SDS011;5534;48.784;9.190;2024-03-02T05:39:26;2.20;;;1.80;;
10963;SDS011;5534;48.784;9.190;2024-03-02T05:41:52;2.13;;;1.87;;
10963;SDS011;5534;48.784;9.190;2024-03-02T05:44:17;2.20;;;1.87;;
10963;SDS011;5534;48.784;9.190;2024-03-02T05:46:43;2.00;;;1.80;;
10963;SDS011;5534;48.784;9.190;2024-03-02T05:49:09;1.70;;;1.40;;
10963;SDS011;5534;48.784;9.190;2024-03-02T05:51:35;1.90;;;1.50;;
10963;SDS011;5534;48.784;9.190;2024-03-02T05:54:01;2.73;;;2.03;;
10963;SDS011;5534;48.784;9.190;2024-03-02T05:56:26;1.67;;;1.57;;
10963;SDS011;5534;48.784;9.190;2024-03-02T05:58:52;2.70;;;2.47;;
10963;SDS011;5534;48.784;9.190;2024-03-02T06:01:32;3.50;;;2.80;;
10963;SDS011;5534;48.784;9.190;2024-03-02T06:03:58;2.40;;;2.00;;
10963;SDS011;5534;48.784;9.190;2024-03-02T06:06:24;2.30;;;2.03;;
10963;SDS011;5534;48.784;9.190;2024-03-02T06:08:49;2.43;;;2.23;;
10963;SDS011;5534;48.784;9.190;2024-03-02T06:11:15;2.73;;;1.53;;
10963;SDS011;5534;48.784;9.190;2024-03-02T06:13:41;1.60;;;1.47;;
10963;SDS011;5534;48.784;9.190;2024-03-02T06:16:06;1.97;;;1.73;;
10963;SDS011;5534;48.784;9.190;2024-03-02T06:18:33;2.07;;;1.63;;
10963;SDS011;5534;48.784;9.190;2024-03-02T06:20:59;1.97;;;1.73;;
10963;SDS011;5534;48.784;9.190;2024-03-02T06:23:26;1.63;;;1.43;;
10963;SDS011;5534;48.784;9.190;2024-03-02T06:25:51;1.67;;;1.57;;
10963;SDS011;5534;48.784;9.190;2024-03-02T06:28:17;3.17;;;2.00;;
10963;SDS011;5534;48.784;9.190;2024-03-02T06:30:43;1.83;;;1.53;;
10963;SDS011;5534;48.784;9.190;2024-03-02T06:33:09;2.67;;;2.23;;
10963;SDS011;5534;48.784;9.190;2024-03-02T06:35:35;2.63;;;2.17;;
10963;SDS011;5534;48.784;9.190;2024-03-02T06:38:00;2.87;;;2.50;;
10963;SDS011;5534;48.784;9.190;2024-03-02T06:40:26;2.47;;;1.97;;
10963;SDS011;5534;48.784;9.190;2024-03-02T06:42:52;2.80;;;2.17;;
10963;SDS011;5534;48.784;9.190;2024-03-02T06:45:17;1.80;;;1.70;;
10963;SDS011;5534;48.784;9.190;2024-03-02T06:47:43;3.20;;;1.73;;
10963;SDS011;5534;48.784;9.190;2024-03-02T06:50:09;2.07;;;1.87;;
10963;SDS011;5534;48.784;9.190;2024-03-02T06:52:35;1.70;;;1.60;;
10963;SDS011;5534;48.784;9.190;2024-03-02T06:55:01;2.53;;;1.73;;
10963;SDS011;5534;48.784;9.190;2024-03-02T06:57:27;3.30;;;2.00;;
10963;SDS011;5534;48.784;9.190;2024-03-02T06:59:53;1.60;;;1.50;;
10963;SDS011;5534;48.784;9.190;2024-03-02T07:02:22;2.83;;;1.67;;
10963;SDS011;5534;48.784;9.190;2024-03-02T07:04:48;2.90;;;2.20;;
10963;SDS011;5534;48.784;9.190;2024-03-02T07:07:14;1.77;;;1.43;;
10963;SDS011;5534;48.784;9.190;2024-03-02T07:09:40;3.70;;;2.63;;
10963;SDS011;5534;48.784;9.190;2024-03-02T07:12:06;2.00;;;1.53;;
10963;SDS011;5534;48.784;9.190;2024-03-02T07:14:31;2.17;;;1.70;;
10963;SDS011;5534;48.784;9.190;2024-03-02T07:17:15;2.77;;;2.00;;
10963;SDS011;5534;48.784;9.190;2024-03-02T07:19:41;2.50;;;1.67;;
10963;SDS011;5534;48.784;9.190;2024-03-02T07:22:07;1.80;;;1.63;;
10963;SDS011;5534;48.784;9.190;2024-03-02T07:24:43;2.10;;;1.50;;
10963;SDS011;5534;48.784;9.190;2024-03-02T07:27:11;4.47;;;1.83;;
10963;SDS011;5534;48.784;9.190;2024-03-02T07:29:37;2.50;;;1.50;;
10963;SDS011;5534;48.784;9.190;2024-03-02T07:32:06;2.80;;;2.50;;
10963;SDS011;5534;48.784;9.190;2024-03-02T07:34:33;2.13;;;1.90;;
10963;SDS011;5534;48.784;9.190;2024-03-02T07:36:58;2.90;;;2.23;;
10963;SDS011;5534;48.784;9.190;2024-03-02T07:39:24;3.17;;;2.70;;
10963;SDS011;5534;48.784;9.190;2024-03-02T07:41:51;2.67;;;1.93;;
10963;SDS011;5534;48.784;9.190;2024-03-02T07:44:16;3.23;;;2.23;;
10963;SDS011;5534;48.784;9.190;2024-03-02T07:46:44;1.93;;;1.73;;
10963;SDS011;5534;48.784;9.190;2024-03-02T07:49:16;3.00;;;2.23;;
10963;SDS011;5534;48.784;9.190;2024-03-02T07:51:45;3.13;;;2.10;;
10963;SDS011;5534;48.784;9.190;2024-03-02T07:54:11;2.27;;;1.90;;
10963;SDS011;5534;48.784;9.190;2024-03-02T07:56:40;2.10;;;1.87;;
10963;SDS011;5534;48.784;9.190;2024-03-02T07:59:05;2.90;;;2.60;;
10963;SDS011;5534;48.784;9.190;2024-03-02T08:01:32;1.77;;;1.63;;
10963;SDS011;5534;48.784;9.190;2024-03-02T08:03:58;2.77;;;2.13;;
10963;SDS011;5534;48.784;9.190;2024-03-02T08:06:27;3.57;;;2.60;;
10963;SDS011;5534;48.784;9.190;2024-03-02T08:08:53;2.93;;;2.63;;
10963;SDS011;5534;48.784;9.190;2024-03-02T08:11:20;4.70;;;2.27;;
10963;SDS011;5534;48.784;9.190;2024-03-02T08:13:46;4.40;;;2.80;;
10963;SDS011;5534;48.784;9.190;2024-03-02T08:16:12;2.50;;;2.27;;
10963;SDS011;5534;48.784;9.190;2024-03-02T08:18:38;4.53;;;3.27;;
10963;SDS011;5534;48.784;9.190;2024-03-02T08:21:04;2.53;;;2.00;;
10963;SDS011;5534;48.784;9.190;2024-03-02T08:23:29;4.90;;;3.17;;
10963;SDS011;5534;48.784;9.190;2024-03-02T08:25:56;3.80;;;2.77;;
10963;SDS011;5534;48.784;9.190;2024-03-02T08:28:24;2.70;;;2.27;;
10963;SDS011;5534;48.784;9.190;2024-03-02T08:30:49;3.63;;;2.20;;
10963;SDS011;5534;48.784;9.190;2024-03-02T08:33:15;2.53;;;2.13;;
10963;SDS011;5534;48.784;9.190;2024-03-02T08:35:41;3.57;;;3.00;;
10963;SDS011;5534;48.784;9.190;2024-03-02T08:38:08;3.37;;;2.50;;
10963;SDS011;5534;48.784;9.190;2024-03-02T08:40:33;3.57;;;2.57;;
10963;SDS011;5534;48.784;9.190;2024-03-02T08:42:59;3.13;;;2.30;;
10963;SDS011;5534;48.784;9.190;2024-03-02T08:45:25;3.37;;;2.43;;
10963;SDS011;5534;48.784;9.190;2024-03-02T08:47:50;3.50;;;2.37;;
10963;SDS011;5534;48.784;9.190;2024-03-02T08:50:16;2.00;;;1.80;;
10963;SDS011;5534;48.784;9.190;2024-03-02T08:52:42;3.63;;;2.37;;
10963;SDS011;5534;48.784;9.190;2024-03-02T08:55:08;2.43;;;2.07;;
10963;SDS011;5534;48.784;9.190;2024-03-02T08:57:34;3.37;;;2.13;;
10963;SDS011;5534;48.784;9.190;2024-03-02T09:00:00;4.97;;;2.80;;
10963;SDS011;5534;48.784;9.190;2024-03-02T09:02:26;3.53;;;2.27;;
10963;SDS011;5534;48.784;9.190;2024-03-02T09:04:52;2.73;;;2.20;;
10963;SDS011;5534;48.784;9.190;2024-03-02T09:07:18;3.37;;;2.47;;
10963;SDS011;5534;48.784;9.190;2024-03-02T09:09:43;2.07;;;1.67;;
10963;SDS011;5534;48.784;9.190;2024-03-02T09:12:09;2.10;;;1.88;;
10963;SDS011;5534;48.784;9.190;2024-03-02T09:14:35;1.50;;;1.40;;
10963;SDS011;5534;48.784;9.190;2024-03-02T09:17:02;2.10;;;1.87;;
10963;SDS011;5534;48.784;9.190;2024-03-02T09:19:28;2.70;;;2.13;;
10963;SDS011;5534;48.784;9.190;2024-03-02T09:21:54;2.38;;;1.88;;
10963;SDS011;5534;48.784;9.190;2024-03-02T09:24:21;2.57;;;1.67;;
10963;SDS011;5534;48.784;9.190;2024-03-02T09:26:46;2.40;;;1.73;;
10963;SDS011;5534;48.784;9.190;2024-03-02T09:29:12;1.60;;;1.50;;
10963;SDS011;5534;48.784;9.190;2024-03-02T09:31:44;1.90;;;1.50;;
10963;SDS011;5534;48.784;9.190;2024-03-02T09:34:12;1.58;;;1.23;;
10963;SDS011;5534;48.784;9.190;2024-03-02T09:36:39;2.30;;;1.60;;
10963;SDS011;5534;48.784;9.190;2024-03-02T09:39:07;2.03;;;1.30;;
10963;SDS011;5534;48.784;9.190;2024-03-02T09:41:34;1.67;;;1.10;;
10963;SDS011;5534;48.784;9.190;2024-03-02T09:44:04;1.40;;;1.30;;
10963;SDS011;5534;48.784;9.190;2024-03-02T09:46:31;3.17;;;1.90;;
10963;SDS011;5534;48.784;9.190;2024-03-02T09:48:56;1.65;;;1.15;;
10963;SDS011;5534;48.784;9.190;2024-03-02T09:51:22;2.75;;;2.00;;
10963;SDS011;5534;48.784;9.190;2024-03-02T09:53:48;2.65;;;2.03;;
10963;SDS011;5534;48.784;9.190;2024-03-02T09:56:14;2.78;;;1.75;;
10963;SDS011;5534;48.784;9.190;2024-03-02T09:58:44;1.77;;;1.60;;
10963;SDS011;5534;48.784;9.190;2024-03-02T10:01:10;3.88;;;1.77;;
10963;SDS011;5534;48.784;9.190;2024-03-02T10:03:38;1.73;;;1.23;;
10963;SDS011;5534;48.784;9.190;2024-03-02T10:08:48;2.20;;;1.23;;
10963;SDS011;5534;48.784;9.190;2024-03-02T10:11:31;2.23;;;1.87;;
10963;SDS011;5534;48.784;9.190;2024-03-02T10:16:38;1.50;;;1.40;;
10963;SDS011;5534;48.784;9.190;2024-03-02T10:19:15;1.25;;;1.15;;
10963;SDS011;5534;48.784;9.190;2024-03-02T10:21:49;1.88;;;1.38;;
10963;SDS011;5534;48.784;9.190;2024-03-02T10:24:16;1.43;;;1.20;;
10963;SDS011;5534;48.784;9.190;2024-03-02T10:26:43;2.67;;;1.27;;
10963;SDS011;5534;48.784;9.190;2024-03-02T10:29:09;1.43;;;1.33;;
10963;SDS011;5534;48.784;9.190;2024-03-02T10:31:38;1.08;;;0.95;;
10963;SDS011;5534;48.784;9.190;2024-03-02T10:34:05;1.70;;;1.40;;
10963;SDS011;5534;48.784;9.190;2024-03-02T10:36:34;1.63;;;1.17;;
10963;SDS011;5534;48.784;9.190;2024-03-02T10:39:04;1.00;;;0.80;;
10963;SDS011;5534;48.784;9.190;2024-03-02T10:41:39;1.67;;;1.58;;
10963;SDS011;5534;48.784;9.190;2024-03-02T10:44:09;5.53;;;1.27;;
10963;SDS011;5534;48.784;9.190;2024-03-02T10:46:36;1.98;;;1.40;;
10963;SDS011;5534;48.784;9.190;2024-03-02T10:49:06;1.25;;;1.15;;
10963;SDS011;5534;48.784;9.190;2024-03-02T10:51:32;1.10;;;1.00;;
10963;SDS011;5534;48.784;9.190;2024-03-02T10:54:01;1.38;;;1.25;;
10963;SDS011;5534;48.784;9.190;2024-03-02T10:56:31;1.30;;;1.10;;
10963;SDS011;5534;48.784;9.190;2024-03-02T11:01:53;1.50;;;1.13;;
10963;SDS011;5534;48.784;9.190;2024-03-02T11:04:22;3.50;;;1.33;;
10963;SDS011;5534;48.784;9.190;2024-03-02T11:06:50;2.17;;;1.20;;
10963;SDS011;5534;48.784;9.190;2024-03-02T11:09:18;1.33;;;1.23;;
10963;SDS011;5534;48.784;9.190;2024-03-02T11:14:30;0.82;;;0.82;;
10963;SDS011;5534;48.784;9.190;2024-03-02T11:17:00;0.93;;;0.82;;
10963;SDS011;5534;48.784;9.190;2024-03-02T11:19:28;1.10;;;1.00;;
10963;SDS011;5534;48.784;9.190;2024-03-02T11:21:55;1.23;;;1.05;;
10963;SDS011;5534;48.784;9.190;2024-03-02T11:26:53;1.13;;;0.90;;
10963;SDS011;5534;48.784;9.190;2024-03-02T11:29:42;0.93;;;0.85;;
10963;SDS011;5534;48.784;9.190;2024-03-02T11:32:15;1.02;;;0.70;;
10963;SDS011;5534;48.784;9.190;2024-03-02T11:34:43;1.85;;;0.80;;
10963;SDS011;5534;48.784;9.190;2024-03-02T11:37:19;0.70;;;0.70;;
10963;SDS011;5534;48.784;9.190;2024-03-02T11:39:51;0.80;;;0.80;;
10963;SDS011;5534;48.784;9.190;2024-03-02T11:42:16;0.75;;;0.65;;
10963;SDS011;5534;48.784;9.190;2024-03-02T11:44:44;1.38;;;0.80;;
10963;SDS011;5534;48.784;9.190;2024-03-02T11:47:11;1.23;;;1.00;;
10963;SDS011;5534;48.784;9.190;2024-03-02T11:49:43;1.50;;;0.93;;
10963;SDS011;5534;48.784;9.190;2024-03-02T11:52:11;1.35;;;0.50;;
10963;SDS011;5534;48.784;9.190;2024-03-02T11:54:43;1.02;;;0.93;;
10963;SDS011;5534;48.784;9.190;2024-03-02T11:57:17;0.70;;;0.70;;
10963;SDS011;5534;48.784;9.190;2024-03-02T11:59:44;0.77;;;0.77;;
10963;SDS011;5534;48.784;9.190;2024-03-02T12:02:17;1.48;;;0.90;;
10963;SDS011;5534;48.784;9.190;2024-03-02T12:04:47;1.10;;;0.60;;
10963;SDS011;5534;48.784;9.190;2024-03-02T12:07:20;1.20;;;0.77;;
10963;SDS011;5534;48.784;9.190;2024-03-02T12:09:49;1.85;;;0.80;;
10963;SDS011;5534;48.784;9.190;2024-03-02T12:12:25;0.77;;;0.63;;
10963;SDS011;5534;48.784;9.190;2024-03-02T12:14:52;0.40;;;0.40;;
10963;SDS011;5534;48.784;9.190;2024-03-02T12:17:20;0.50;;;0.50;;
10963;SDS011;5534;48.784;9.190;2024-03-02T12:19:46;0.25;;;0.25;;
10963;SDS011;5534;48.784;9.190;2024-03-02T12:22:12;0.20;;;0.20;;
10963;SDS011;5534;48.784;9.190;2024-03-02T12:24:38;0.50;;;0.50;;
10963;SDS011;5534;48.784;9.190;2024-03-02T12:27:04;0.43;;;0.35;;
10963;SDS011;5534;48.784;9.190;2024-03-02T12:29:31;0.40;;;0.40;;
10963;SDS011;5534;48.784;9.190;2024-03-02T12:31:59;0.50;;;0.32;;
10963;SDS011;5534;48.784;9.190;2024-03-02T12:34:26;0.40;;;0.40;;
10963;SDS011;5534;48.784;9.190;2024-03-02T12:36:53;0.40;;;0.40;;
10963;SDS011;5534;48.784;9.190;2024-03-02T12:39:19;1.70;;;0.52;;
10963;SDS011;5534;48.784;9.190;2024-03-02T12:41:46;0.85;;;0.60;;
10963;SDS011;5534;48.784;9.190;2024-03-02T12:44:12;0.47;;;0.47;;
10963;SDS011;5534;48.784;9.190;2024-03-02T12:46:37;0.80;;;0.60;;
10963;SDS011;5534;48.784;9.190;2024-03-02T12:49:10;0.85;;;0.60;;
10963;SDS011;5534;48.784;9.190;2024-03-02T12:51:38;0.28;;;0.28;;
10963;SDS011;5534;48.784;9.190;2024-03-02T12:54:07;0.70;;;0.65;;
10963;SDS011;5534;48.784;9.190;2024-03-02T12:56:35;0.50;;;0.50;;
10963;SDS011;5534;48.784;9.190;2024-03-02T12:59:02;0.50;;;0.50;;
10963;SDS011;5534;48.784;9.190;2024-03-02T13:01:29;0.73;;;0.50;;
10963;SDS011;5534;48.784;9.190;2024-03-02T13:03:54;0.38;;;0.38;;
10963;SDS011;5534;48.784;9.190;2024-03-02T13:06:21;0.82;;;0.45;;
10963;SDS011;5534;48.784;9.190;2024-03-02T13:08:52;0.40;;;0.40;;
10963;SDS011;5534;48.784;9.190;2024-03-02T13:11:18;0.50;;;0.50;;
10963;SDS011;5534;48.784;9.190;2024-03-02T13:13:44;0.50;;;0.50;;
10963;SDS011;5534;48.784;9.190;2024-03-02T13:16:10;0.50;;;0.50;;
10963;SDS011;5534;48.784;9.190;2024-03-02T13:18:38;0.35;;;0.35;;
10963;SDS011;5534;48.784;9.190;2024-03-02T13:21:05;0.47;;;0.45;;
10963;SDS011;5534;48.784;9.190;2024-03-02T13:23:34;0.30;;;0.30;;
10963;SDS011;5534;48.784;9.190;2024-03-02T13:25:59;0.30;;;0.30;;
10963;SDS011;5534;48.784;9.190;2024-03-02T13:28:26;0.55;;;0.40;;
10963;SDS011;5534;48.784;9.190;2024-03-02T13:30:51;0.40;;;0.40;;
10963;SDS011;5534;48.784;9.190;2024-03-02T13:33:17;0.40;;;0.40;;
10963;SDS011;5534;48.784;9.190;2024-03-02T13:35:50;0.65;;;0.50;;
10963;SDS011;5534;48.784;9.190;2024-03-02T13:38:20;0.40;;;0.40;;
10963;SDS011;5534;48.784;9.190;2024-03-02T13:40:46;0.40;;;0.40;;
10963;SDS011;5534;48.784;9.190;2024-03-02T13:43:17;0.40;;;0.40;;
10963;SDS011;5534;48.784;9.190;2024-03-02T13:45:47;0.55;;;0.55;;
10963;SDS011;5534;48.784;9.190;2024-03-02T13:48:13;0.40;;;0.40;;
10963;SDS011;5534;48.784;9.190;2024-03-02T13:50:39;0.30;;;0.30;;
10963;SDS011;5534;48.784;9.190;2024-03-02T13:53:05;0.30;;;0.30;;
10963;SDS011;5534;48.784;9.190;2024-03-02T13:55:32;1.20;;;0.60;;
10963;SDS011;5534;48.784;9.190;2024-03-02T13:57:58;0.60;;;0.60;;
10963;SDS011;5534;48.784;9.190;2024-03-02T14:00:24;0.98;;;0.77;;
10963;SDS011;5534;48.784;9.190;2024-03-02T14:02:53;0.77;;;0.50;;
10963;SDS011;5534;48.784;9.190;2024-03-02T14:05:19;1.17;;;0.80;;
10963;SDS011;5534;48.784;9.190;2024-03-02T14:07:44;0.50;;;0.50;;
10963;SDS011;5534;48.784;9.190;2024-03-02T14:10:10;0.55;;;0.52;;
10963;SDS011;5534;48.784;9.190;2024-03-02T14:12:36;0.52;;;0.50;;
10963;SDS011;5534;48.784;9.190;2024-03-02T14:15:02;0.47;;;0.38;;
10963;SDS011;5534;48.784;9.190;2024-03-02T14:17:28;0.52;;;0.43;;
10963;SDS011;5534;48.784;9.190;2024-03-02T14:19:56;0.40;;;0.40;;
10963;SDS011;5534;48.784;9.190;2024-03-02T14:22:23;0.82;;;0.50;;
10963;SDS011;5534;48.784;9.190;2024-03-02T14:24:49;0.50;;;0.50;;
10963;SDS011;5534;48.784;9.190;2024-03-02T14:27:15;0.40;;;0.40;;
10963;SDS011;5534;48.784;9.190;2024-03-02T14:29:42;1.80;;;1.48;;
10963;SDS011;5534;48.784;9.190;2024-03-02T14:32:08;0.43;;;0.43;;
10963;SDS011;5534;48.784;9.190;2024-03-02T14:34:34;0.93;;;0.60;;
10963;SDS011;5534;48.784;9.190;2024-03-02T14:36:59;0.40;;;0.40;;
10963;SDS011;5534;48.784;9.190;2024-03-02T14:39:25;0.35;;;0.35;;
10963;SDS011;5534;48.784;9.190;2024-03-02T14:41:52;0.70;;;0.60;;
10963;SDS011;5534;48.784;9.190;2024-03-02T14:44:17;1.30;;;0.80;;
10963;SDS011;5534;48.784;9.190;2024-03-02T14:46:46;2.15;;;1.60;;
10963;SDS011;5534;48.784;9.190;2024-03-02T14:49:13;0.45;;;0.45;;
10963;SDS011;5534;48.784;9.190;2024-03-02T14:51:39;0.52;;;0.52;;
10963;SDS011;5534;48.784;9.190;2024-03-02T14:54:04;1.00;;;0.70;;
10963;SDS011;5534;48.784;9.190;2024-03-02T14:56:30;0.77;;;0.60;;
10963;SDS011;5534;48.784;9.190;2024-03-02T14:58:56;0.57;;;0.57;;
10963;SDS011;5534;48.784;9.190;2024-03-02T15:01:21;0.57;;;0.43;;
10963;SDS011;5534;48.784;9.190;2024-03-02T15:03:51;0.40;;;0.40;;
10963;SDS011;5534;48.784;9.190;2024-03-02T15:06:17;2.05;;;1.23;;
10963;SDS011;5534;48.784;9.190;2024-03-02T15:08:45;0.82;;;0.65;;
10963;SDS011;5534;48.784;9.190;2024-03-02T15:11:13;1.95;;;0.70;;
10963;SDS011;5534;48.784;9.190;2024-03-02T15:13:39;0.60;;;0.60;;
10963;SDS011;5534;48.784;9.190;2024-03-02T15:16:05;0.60;;;0.60;;